sensor_id;sensor_type;location;lat;lon;timestamp;temperature;humidity
49777;DHT22;35673;51.482;7.436;2022-12-20T00:00:47;11.20;99.90
49777;DHT22;35673;51.482;7.436;2022-12-20T00:03:13;11.20;99.90
49777;DHT22;35673;51.482;7.436;2022-12-20T00:05:39;11.30;99.90
49777;DHT22;35673;51.482;7.436;2022-12-20T00:08:05;11.20;99.90
49777;DHT22;35673;51.482;7.436;2022-12-20T00:10:34;11.20;99.90
49777;DHT22;35673;51.482;7.436;2022-12-20T00:13:00;11.30;99.90
49777;DHT22;35673;51.482;7.436;2022-12-20T00:15:25;11.30;99.90
49777;DHT22;35673;51.482;7.436;2022-12-20T00:17:51;11.30;99.90
49777;DHT22;35673;51.482;7.436;2022-12-20T00:20:16;11.40;99.90
49777;DHT22;35673;51.482;7.436;2022-12-20T00:22:42;11.40;99.90
49777;DHT22;35673;51.482;7.436;2022-12-20T00:25:08;11.40;99.90
49777;DHT22;35673;51.482;7.436;2022-12-20T00:27:33;11.50;99.90
49777;DHT22;35673;51.482;7.436;2022-12-20T00:29:59;11.50;99.00
49777;DHT22;35673;51.482;7.436;2022-12-20T00:32:25;11.50;99.20
49777;DHT22;35673;51.482;7.436;2022-12-20T00:34:51;11.50;99.40
49777;DHT22;35673;51.482;7.436;2022-12-20T00:37:16;11.60;99.10
49777;DHT22;35673;51.482;7.436;2022-12-20T00:39:42;11.60;98.50
49777;DHT22;35673;51.482;7.436;2022-12-20T00:42:07;11.60;98.70
49777;DHT22;35673;51.482;7.436;2022-12-20T00:44:33;11.60;98.60
49777;DHT22;35673;51.482;7.436;2022-12-20T00:46:58;11.60;98.50
49777;DHT22;35673;51.482;7.436;2022-12-20T00:49:24;11.60;98.10
49777;DHT22;35673;51.482;7.436;2022-12-20T00:51:49;11.60;98.40
49777;DHT22;35673;51.482;7.436;2022-12-20T00:54:15;11.60;98.30
49777;DHT22;35673;51.482;7.436;2022-12-20T00:56:40;11.60;98.00
49777;DHT22;35673;51.482;7.436;2022-12-20T00:59:06;11.60;98.70
49777;DHT22;35673;51.482;7.436;2022-12-20T01:01:32;11.60;98.60
49777;DHT22;35673;51.482;7.436;2022-12-20T01:03:59;11.60;98.10
49777;DHT22;35673;51.482;7.436;2022-12-20T01:06:25;11.60;97.80
49777;DHT22;35673;51.482;7.436;2022-12-20T01:08:51;11.70;97.80
49777;DHT22;35673;51.482;7.436;2022-12-20T01:11:18;11.70;98.00
49777;DHT22;35673;51.482;7.436;2022-12-20T01:13:45;11.70;97.90
49777;DHT22;35673;51.482;7.436;2022-12-20T01:16:12;11.70;97.40
49777;DHT22;35673;51.482;7.436;2022-12-20T01:18:38;11.70;96.70
49777;DHT22;35673;51.482;7.436;2022-12-20T01:21:08;11.70;97.30
49777;DHT22;35673;51.482;7.436;2022-12-20T01:23:33;11.80;96.90
49777;DHT22;35673;51.482;7.436;2022-12-20T01:25:59;11.80;97.20
49777;DHT22;35673;51.482;7.436;2022-12-20T01:28:25;11.70;96.90
49777;DHT22;35673;51.482;7.436;2022-12-20T01:30:51;11.70;97.70
49777;DHT22;35673;51.482;7.436;2022-12-20T01:33:16;11.70;97.30
49777;DHT22;35673;51.482;7.436;2022-12-20T01:35:42;11.70;97.60
49777;DHT22;35673;51.482;7.436;2022-12-20T01:38:18;11.70;97.20
49777;DHT22;35673;51.482;7.436;2022-12-20T01:40:44;11.80;97.50
49777;DHT22;35673;51.482;7.436;2022-12-20T01:43:11;11.80;97.20
49777;DHT22;35673;51.482;7.436;2022-12-20T01:45:36;11.80;97.00
49777;DHT22;35673;51.482;7.436;2022-12-20T01:48:02;11.80;96.70
49777;DHT22;35673;51.482;7.436;2022-12-20T01:50:28;11.80;96.70
49777;DHT22;35673;51.482;7.436;2022-12-20T01:52:53;11.80;98.00
49777;DHT22;35673;51.482;7.436;2022-12-20T01:55:20;11.80;98.00
49777;DHT22;35673;51.482;7.436;2022-12-20T01:58:07;11.70;98.20
49777;DHT22;35673;51.482;7.436;2022-12-20T02:00:34;11.70;98.40
49777;DHT22;35673;51.482;7.436;2022-12-20T02:03:03;11.70;98.90
49777;DHT22;35673;51.482;7.436;2022-12-20T02:05:33;11.70;99.10
49777;DHT22;35673;51.482;7.436;2022-12-20T02:07:58;11.60;99.60
49777;DHT22;35673;51.482;7.436;2022-12-20T02:10:26;11.60;99.90
49777;DHT22;35673;51.482;7.436;2022-12-20T02:12:57;11.60;99.90
49777;DHT22;35673;51.482;7.436;2022-12-20T02:28:25;11.40;99.90
49777;DHT22;35673;51.482;7.436;2022-12-20T02:30:56;11.40;99.90
49777;DHT22;35673;51.482;7.436;2022-12-20T02:33:24;11.40;99.90
49777;DHT22;35673;51.482;7.436;2022-12-20T02:35:51;11.30;99.90
49777;DHT22;35673;51.482;7.436;2022-12-20T02:38:30;11.30;99.90
49777;DHT22;35673;51.482;7.436;2022-12-20T02:41:19;11.30;99.90
49777;DHT22;35673;51.482;7.436;2022-12-20T02:43:41;11.30;99.90
49777;DHT22;35673;51.482;7.436;2022-12-20T02:46:27;11.30;99.90
49777;DHT22;35673;51.482;7.436;2022-12-20T02:48:54;11.30;99.90
49777;DHT22;35673;51.482;7.436;2022-12-20T02:51:21;11.30;99.90
49777;DHT22;35673;51.482;7.436;2022-12-20T02:53:47;11.30;99.90
49777;DHT22;35673;51.482;7.436;2022-12-20T02:58:42;11.30;99.90
49777;DHT22;35673;51.482;7.436;2022-12-20T03:01:13;11.30;99.90
49777;DHT22;35673;51.482;7.436;2022-12-20T03:03:41;11.30;99.90
49777;DHT22;35673;51.482;7.436;2022-12-20T03:06:07;11.30;99.90
49777;DHT22;35673;51.482;7.436;2022-12-20T03:08:33;11.30;99.90
49777;DHT22;35673;51.482;7.436;2022-12-20T03:10:58;11.40;99.90
49777;DHT22;35673;51.482;7.436;2022-12-20T03:13:24;11.30;99.90
49777;DHT22;35673;51.482;7.436;2022-12-20T03:15:50;11.30;99.90
49777;DHT22;35673;51.482;7.436;2022-12-20T03:18:15;11.30;99.90
49777;DHT22;35673;51.482;7.436;2022-12-20T03:20:41;11.30;99.90
49777;DHT22;35673;51.482;7.436;2022-12-20T03:23:06;11.30;99.90
49777;DHT22;35673;51.482;7.436;2022-12-20T03:25:32;11.30;99.90
49777;DHT22;35673;51.482;7.436;2022-12-20T03:27:58;11.30;99.90
49777;DHT22;35673;51.482;7.436;2022-12-20T03:30:23;11.20;99.90
49777;DHT22;35673;51.482;7.436;2022-12-20T03:32:49;11.20;99.90
49777;DHT22;35673;51.482;7.436;2022-12-20T03:35:14;11.20;99.90
49777;DHT22;35673;51.482;7.436;2022-12-20T03:37:40;11.20;99.90
49777;DHT22;35673;51.482;7.436;2022-12-20T03:40:06;11.20;99.90
49777;DHT22;35673;51.482;7.436;2022-12-20T03:42:32;11.30;99.90
49777;DHT22;35673;51.482;7.436;2022-12-20T03:44:57;11.20;99.90
49777;DHT22;35673;51.482;7.436;2022-12-20T03:47:23;11.20;99.90
49777;DHT22;35673;51.482;7.436;2022-12-20T03:49:48;11.20;99.90
49777;DHT22;35673;51.482;7.436;2022-12-20T03:52:14;11.20;99.90
49777;DHT22;35673;51.482;7.436;2022-12-20T03:54:39;11.20;99.90
49777;DHT22;35673;51.482;7.436;2022-12-20T03:57:05;11.10;99.90
49777;DHT22;35673;51.482;7.436;2022-12-20T03:59:31;11.20;99.90
49777;DHT22;35673;51.482;7.436;2022-12-20T04:01:56;11.20;99.90
49777;DHT22;35673;51.482;7.436;2022-12-20T04:04:22;11.20;99.90
49777;DHT22;35673;51.482;7.436;2022-12-20T04:06:47;11.20;99.90
49777;DHT22;35673;51.482;7.436;2022-12-20T04:09:13;11.10;99.90
49777;DHT22;35673;51.482;7.436;2022-12-20T04:11:39;11.10;99.90
49777;DHT22;35673;51.482;7.436;2022-12-20T04:14:05;11.10;99.90
49777;DHT22;35673;51.482;7.436;2022-12-20T04:16:30;11.10;99.90
49777;DHT22;35673;51.482;7.436;2022-12-20T04:18:56;11.10;99.90
49777;DHT22;35673;51.482;7.436;2022-12-20T04:21:22;11.10;99.90
49777;DHT22;35673;51.482;7.436;2022-12-20T04:23:48;11.10;99.90
49777;DHT22;35673;51.482;7.436;2022-12-20T04:26:14;11.10;99.90
49777;DHT22;35673;51.482;7.436;2022-12-20T04:28:39;11.10;99.90
49777;DHT22;35673;51.482;7.436;2022-12-20T04:31:05;11.10;99.90
49777;DHT22;35673;51.482;7.436;2022-12-20T04:33:30;11.10;99.90
49777;DHT22;35673;51.482;7.436;2022-12-20T04:35:56;11.10;99.90
49777;DHT22;35673;51.482;7.436;2022-12-20T04:38:22;11.10;99.90
49777;DHT22;35673;51.482;7.436;2022-12-20T04:40:48;11.10;99.90
49777;DHT22;35673;51.482;7.436;2022-12-20T04:43:14;11.10;99.90
49777;DHT22;35673;51.482;7.436;2022-12-20T04:45:39;11.00;99.90
49777;DHT22;35673;51.482;7.436;2022-12-20T04:48:05;11.00;99.90
49777;DHT22;35673;51.482;7.436;2022-12-20T04:50:30;11.00;99.90
49777;DHT22;35673;51.482;7.436;2022-12-20T04:52:56;10.90;99.90
49777;DHT22;35673;51.482;7.436;2022-12-20T04:55:54;10.90;99.90
49777;DHT22;35673;51.482;7.436;2022-12-20T04:58:19;10.90;99.90
49777;DHT22;35673;51.482;7.436;2022-12-20T05:00:45;10.90;99.90
49777;DHT22;35673;51.482;7.436;2022-12-20T05:03:11;10.90;99.90
49777;DHT22;35673;51.482;7.436;2022-12-20T05:05:36;10.90;99.90
49777;DHT22;35673;51.482;7.436;2022-12-20T05:08:02;10.80;99.90
49777;DHT22;35673;51.482;7.436;2022-12-20T05:10:27;10.70;99.90
49777;DHT22;35673;51.482;7.436;2022-12-20T05:12:53;10.70;99.90
49777;DHT22;35673;51.482;7.436;2022-12-20T05:15:18;10.70;99.90
49777;DHT22;35673;51.482;7.436;2022-12-20T05:17:44;10.60;99.90
49777;DHT22;35673;51.482;7.436;2022-12-20T05:20:09;10.60;99.90
49777;DHT22;35673;51.482;7.436;2022-12-20T05:22:35;10.60;99.90
49777;DHT22;35673;51.482;7.436;2022-12-20T05:25:19;10.60;99.90
49777;DHT22;35673;51.482;7.436;2022-12-20T05:28:03;10.50;99.90
49777;DHT22;35673;51.482;7.436;2022-12-20T05:30:29;10.50;99.90
49777;DHT22;35673;51.482;7.436;2022-12-20T05:32:54;10.50;99.90
49777;DHT22;35673;51.482;7.436;2022-12-20T05:35:20;10.50;99.90
49777;DHT22;35673;51.482;7.436;2022-12-20T05:37:46;10.50;99.90
49777;DHT22;35673;51.482;7.436;2022-12-20T05:40:12;10.50;99.90
49777;DHT22;35673;51.482;7.436;2022-12-20T05:42:37;10.50;99.90
49777;DHT22;35673;51.482;7.436;2022-12-20T05:45:03;10.50;99.90
49777;DHT22;35673;51.482;7.436;2022-12-20T05:47:29;10.50;99.90
49777;DHT22;35673;51.482;7.436;2022-12-20T05:49:58;10.50;99.90
49777;DHT22;35673;51.482;7.436;2022-12-20T05:52:25;10.50;99.90
49777;DHT22;35673;51.482;7.436;2022-12-20T05:54:50;10.50;99.90
49777;DHT22;35673;51.482;7.436;2022-12-20T05:57:16;10.50;99.90
49777;DHT22;35673;51.482;7.436;2022-12-20T05:59:41;10.60;99.90
49777;DHT22;35673;51.482;7.436;2022-12-20T06:02:07;10.60;99.90
49777;DHT22;35673;51.482;7.436;2022-12-20T06:04:35;10.60;99.90
49777;DHT22;35673;51.482;7.436;2022-12-20T06:07:00;10.60;99.90
49777;DHT22;35673;51.482;7.436;2022-12-20T06:09:26;10.60;99.90
49777;DHT22;35673;51.482;7.436;2022-12-20T06:11:52;10.60;99.90
49777;DHT22;35673;51.482;7.436;2022-12-20T06:14:17;10.70;99.90
49777;DHT22;35673;51.482;7.436;2022-12-20T06:16:43;10.70;99.90
49777;DHT22;35673;51.482;7.436;2022-12-20T06:19:08;10.70;99.90
49777;DHT22;35673;51.482;7.436;2022-12-20T06:21:34;10.70;99.90
49777;DHT22;35673;51.482;7.436;2022-12-20T06:23:59;10.80;99.90
49777;DHT22;35673;51.482;7.436;2022-12-20T06:26:25;10.80;99.90
49777;DHT22;35673;51.482;7.436;2022-12-20T06:28:51;10.80;99.90
49777;DHT22;35673;51.482;7.436;2022-12-20T06:31:18;10.80;99.90
49777;DHT22;35673;51.482;7.436;2022-12-20T06:33:44;10.80;99.90
49777;DHT22;35673;51.482;7.436;2022-12-20T06:36:10;10.80;99.90
49777;DHT22;35673;51.482;7.436;2022-12-20T06:38:35;10.90;99.90
49777;DHT22;35673;51.482;7.436;2022-12-20T06:41:01;11.00;99.90
49777;DHT22;35673;51.482;7.436;2022-12-20T06:43:26;11.00;99.90
49777;DHT22;35673;51.482;7.436;2022-12-20T06:45:52;11.00;99.90
49777;DHT22;35673;51.482;7.436;2022-12-20T06:48:17;11.00;99.90
49777;DHT22;35673;51.482;7.436;2022-12-20T06:50:47;11.00;99.90
49777;DHT22;35673;51.482;7.436;2022-12-20T06:53:12;11.00;99.90
49777;DHT22;35673;51.482;7.436;2022-12-20T06:55:38;11.00;99.90
49777;DHT22;35673;51.482;7.436;2022-12-20T06:58:03;11.10;99.90
49777;DHT22;35673;51.482;7.436;2022-12-20T07:00:29;11.10;99.90
49777;DHT22;35673;51.482;7.436;2022-12-20T07:02:54;11.10;99.90
49777;DHT22;35673;51.482;7.436;2022-12-20T07:05:20;11.10;99.90
49777;DHT22;35673;51.482;7.436;2022-12-20T07:07:45;11.10;99.90
49777;DHT22;35673;51.482;7.436;2022-12-20T07:10:11;11.10;99.90
49777;DHT22;35673;51.482;7.436;2022-12-20T07:12:37;11.10;99.90
49777;DHT22;35673;51.482;7.436;2022-12-20T07:15:02;11.10;99.90
49777;DHT22;35673;51.482;7.436;2022-12-20T07:17:28;11.20;99.90
49777;DHT22;35673;51.482;7.436;2022-12-20T07:19:53;11.20;99.90
49777;DHT22;35673;51.482;7.436;2022-12-20T07:22:19;11.20;99.90
49777;DHT22;35673;51.482;7.436;2022-12-20T07:24:44;11.20;99.90
49777;DHT22;35673;51.482;7.436;2022-12-20T07:27:10;11.30;99.90
49777;DHT22;35673;51.482;7.436;2022-12-20T07:29:36;11.30;99.90
49777;DHT22;35673;51.482;7.436;2022-12-20T07:32:04;11.30;99.90
49777;DHT22;35673;51.482;7.436;2022-12-20T07:34:30;11.20;99.90
49777;DHT22;35673;51.482;7.436;2022-12-20T07:36:55;11.20;99.90
49777;DHT22;35673;51.482;7.436;2022-12-20T07:39:21;11.30;99.90
49777;DHT22;35673;51.482;7.436;2022-12-20T07:41:46;11.20;99.90
49777;DHT22;35673;51.482;7.436;2022-12-20T07:44:12;11.20;99.90
49777;DHT22;35673;51.482;7.436;2022-12-20T07:46:37;11.20;99.90
49777;DHT22;35673;51.482;7.436;2022-12-20T07:49:03;11.30;99.90
49777;DHT22;35673;51.482;7.436;2022-12-20T07:51:30;11.30;99.90
49777;DHT22;35673;51.482;7.436;2022-12-20T07:54:19;11.30;99.90
49777;DHT22;35673;51.482;7.436;2022-12-20T07:56:44;11.30;99.90
49777;DHT22;35673;51.482;7.436;2022-12-20T07:59:12;11.40;99.90
49777;DHT22;35673;51.482;7.436;2022-12-20T08:01:38;11.40;99.90
49777;DHT22;35673;51.482;7.436;2022-12-20T08:04:07;11.40;99.90
49777;DHT22;35673;51.482;7.436;2022-12-20T08:06:33;11.40;99.90
49777;DHT22;35673;51.482;7.436;2022-12-20T08:09:02;11.40;99.90
49777;DHT22;35673;51.482;7.436;2022-12-20T08:11:29;11.50;99.90
49777;DHT22;35673;51.482;7.436;2022-12-20T08:13:55;11.50;99.90
49777;DHT22;35673;51.482;7.436;2022-12-20T08:16:21;11.50;99.90
49777;DHT22;35673;51.482;7.436;2022-12-20T08:18:46;11.50;99.90
49777;DHT22;35673;51.482;7.436;2022-12-20T08:21:12;11.40;99.90
49777;DHT22;35673;51.482;7.436;2022-12-20T08:23:39;11.50;99.90
49777;DHT22;35673;51.482;7.436;2022-12-20T08:26:04;11.50;99.90
49777;DHT22;35673;51.482;7.436;2022-12-20T08:28:30;11.50;99.90
49777;DHT22;35673;51.482;7.436;2022-12-20T08:31:02;11.60;99.90
49777;DHT22;35673;51.482;7.436;2022-12-20T08:33:28;11.60;99.90
49777;DHT22;35673;51.482;7.436;2022-12-20T08:36:00;11.60;99.90
49777;DHT22;35673;51.482;7.436;2022-12-20T08:38:30;11.50;99.90
49777;DHT22;35673;51.482;7.436;2022-12-20T08:41:00;11.60;99.90
49777;DHT22;35673;51.482;7.436;2022-12-20T08:43:26;11.50;99.90
49777;DHT22;35673;51.482;7.436;2022-12-20T08:45:52;11.50;99.90
49777;DHT22;35673;51.482;7.436;2022-12-20T08:48:18;11.50;99.90
49777;DHT22;35673;51.482;7.436;2022-12-20T08:50:44;11.60;99.90
49777;DHT22;35673;51.482;7.436;2022-12-20T08:53:09;11.60;99.90
49777;DHT22;35673;51.482;7.436;2022-12-20T08:55:35;11.70;99.90
49777;DHT22;35673;51.482;7.436;2022-12-20T08:58:00;11.70;99.90
49777;DHT22;35673;51.482;7.436;2022-12-20T09:00:26;11.80;99.90
49777;DHT22;35673;51.482;7.436;2022-12-20T09:02:52;12.00;99.90
49777;DHT22;35673;51.482;7.436;2022-12-20T09:05:19;12.20;99.90
49777;DHT22;35673;51.482;7.436;2022-12-20T09:07:44;12.30;99.40
49777;DHT22;35673;51.482;7.436;2022-12-20T09:10:10;12.30;98.70
49777;DHT22;35673;51.482;7.436;2022-12-20T09:12:36;12.20;98.70
49777;DHT22;35673;51.482;7.436;2022-12-20T09:15:02;12.20;99.40
49777;DHT22;35673;51.482;7.436;2022-12-20T09:17:27;12.20;99.50
49777;DHT22;35673;51.482;7.436;2022-12-20T09:19:53;12.20;99.60
49777;DHT22;35673;51.482;7.436;2022-12-20T09:22:19;12.20;99.40
49777;DHT22;35673;51.482;7.436;2022-12-20T09:24:45;12.20;99.90
49777;DHT22;35673;51.482;7.436;2022-12-20T09:27:10;12.20;99.80
49777;DHT22;35673;51.482;7.436;2022-12-20T09:29:36;12.20;99.90
49777;DHT22;35673;51.482;7.436;2022-12-20T09:32:02;12.20;99.20
49777;DHT22;35673;51.482;7.436;2022-12-20T09:34:27;12.20;99.40
49777;DHT22;35673;51.482;7.436;2022-12-20T09:36:53;12.20;99.80
49777;DHT22;35673;51.482;7.436;2022-12-20T09:39:19;12.10;99.40
49777;DHT22;35673;51.482;7.436;2022-12-20T09:41:45;12.10;99.90
49777;DHT22;35673;51.482;7.436;2022-12-20T09:44:18;12.10;99.70
49777;DHT22;35673;51.482;7.436;2022-12-20T09:46:44;12.10;99.10
49777;DHT22;35673;51.482;7.436;2022-12-20T09:49:13;12.00;99.30
49777;DHT22;35673;51.482;7.436;2022-12-20T09:54:34;12.00;99.50
49777;DHT22;35673;51.482;7.436;2022-12-20T09:57:12;12.10;99.60
49777;DHT22;35673;51.482;7.436;2022-12-20T09:59:39;12.10;99.30
49777;DHT22;35673;51.482;7.436;2022-12-20T10:02:12;12.10;99.60
49777;DHT22;35673;51.482;7.436;2022-12-20T10:04:39;12.20;99.50
49777;DHT22;35673;51.482;7.436;2022-12-20T10:17:10;12.30;99.40
49777;DHT22;35673;51.482;7.436;2022-12-20T10:24:37;12.40;98.20
49777;DHT22;35673;51.482;7.436;2022-12-20T10:27:15;12.40;98.00
49777;DHT22;35673;51.482;7.436;2022-12-20T10:29:41;12.40;98.20
49777;DHT22;35673;51.482;7.436;2022-12-20T10:32:10;12.50;98.00
49777;DHT22;35673;51.482;7.436;2022-12-20T10:34:37;12.50;97.60
49777;DHT22;35673;51.482;7.436;2022-12-20T10:37:12;12.50;97.50
49777;DHT22;35673;51.482;7.436;2022-12-20T10:39:39;12.50;98.40
49777;DHT22;35673;51.482;7.436;2022-12-20T10:42:09;12.50;98.40
49777;DHT22;35673;51.482;7.436;2022-12-20T10:44:46;12.50;98.90
49777;DHT22;35673;51.482;7.436;2022-12-20T10:47:20;12.50;98.80
49777;DHT22;35673;51.482;7.436;2022-12-20T10:49:49;12.50;98.90
49777;DHT22;35673;51.482;7.436;2022-12-20T10:52:14;12.50;98.80
49777;DHT22;35673;51.482;7.436;2022-12-20T10:54:42;12.50;98.90
49777;DHT22;35673;51.482;7.436;2022-12-20T10:59:43;12.60;98.50
49777;DHT22;35673;51.482;7.436;2022-12-20T11:04:45;12.80;97.60
49777;DHT22;35673;51.482;7.436;2022-12-20T11:07:22;12.90;96.90
49777;DHT22;35673;51.482;7.436;2022-12-20T11:09:55;13.10;96.50
49777;DHT22;35673;51.482;7.436;2022-12-20T11:12:21;13.10;95.90
49777;DHT22;35673;51.482;7.436;2022-12-20T11:14:46;13.20;95.70
49777;DHT22;35673;51.482;7.436;2022-12-20T11:22:26;13.20;95.00
49777;DHT22;35673;51.482;7.436;2022-12-20T11:25:01;13.30;94.70
49777;DHT22;35673;51.482;7.436;2022-12-20T11:30:07;13.30;94.30
49777;DHT22;35673;51.482;7.436;2022-12-20T11:38:05;13.30;94.00
49777;DHT22;35673;51.482;7.436;2022-12-20T11:40:33;13.30;94.90
49777;DHT22;35673;51.482;7.436;2022-12-20T11:50:48;13.30;93.60
49777;DHT22;35673;51.482;7.436;2022-12-20T11:53:22;13.30;93.50
49777;DHT22;35673;51.482;7.436;2022-12-20T11:55:51;13.30;93.90
49777;DHT22;35673;51.482;7.436;2022-12-20T11:58:18;13.20;95.10
49777;DHT22;35673;51.482;7.436;2022-12-20T12:03:42;13.00;94.80
49777;DHT22;35673;51.482;7.436;2022-12-20T12:06:11;13.00;95.10
49777;DHT22;35673;51.482;7.436;2022-12-20T12:08:44;13.00;95.30
49777;DHT22;35673;51.482;7.436;2022-12-20T12:11:14;12.90;94.90
49777;DHT22;35673;51.482;7.436;2022-12-20T12:13:42;12.90;95.10
49777;DHT22;35673;51.482;7.436;2022-12-20T12:18:36;12.90;95.30
49777;DHT22;35673;51.482;7.436;2022-12-20T12:26:11;12.90;95.50
49777;DHT22;35673;51.482;7.436;2022-12-20T12:28:37;12.90;95.10
49777;DHT22;35673;51.482;7.436;2022-12-20T12:31:09;12.80;95.00
49777;DHT22;35673;51.482;7.436;2022-12-20T12:33:37;12.80;94.90
49777;DHT22;35673;51.482;7.436;2022-12-20T12:46:34;12.70;96.40
49777;DHT22;35673;51.482;7.436;2022-12-20T12:49:05;12.70;96.80
49777;DHT22;35673;51.482;7.436;2022-12-20T12:51:37;12.70;96.80
49777;DHT22;35673;51.482;7.436;2022-12-20T12:56:49;12.70;96.90
49777;DHT22;35673;51.482;7.436;2022-12-20T12:59:19;12.70;97.20
49777;DHT22;35673;51.482;7.436;2022-12-20T13:11:56;12.50;99.90
49777;DHT22;35673;51.482;7.436;2022-12-20T13:19:38;12.60;99.90
49777;DHT22;35673;51.482;7.436;2022-12-20T13:26:59;12.70;99.90
49777;DHT22;35673;51.482;7.436;2022-12-20T13:29:26;12.60;99.90
49777;DHT22;35673;51.482;7.436;2022-12-20T13:31:52;12.50;99.90
49777;DHT22;35673;51.482;7.436;2022-12-20T13:37:28;12.40;99.90
49777;DHT22;35673;51.482;7.436;2022-12-20T13:40:17;12.30;99.90
49777;DHT22;35673;51.482;7.436;2022-12-20T13:42:43;12.30;99.90
49777;DHT22;35673;51.482;7.436;2022-12-20T13:45:10;12.20;99.90
49777;DHT22;35673;51.482;7.436;2022-12-20T13:47:43;12.20;99.90
49777;DHT22;35673;51.482;7.436;2022-12-20T13:52:48;12.00;99.90
49777;DHT22;35673;51.482;7.436;2022-12-20T13:55:16;11.90;99.90
49777;DHT22;35673;51.482;7.436;2022-12-20T13:57:47;11.80;99.90
49777;DHT22;35673;51.482;7.436;2022-12-20T14:00:17;11.80;99.90
49777;DHT22;35673;51.482;7.436;2022-12-20T14:02:43;11.80;99.90
49777;DHT22;35673;51.482;7.436;2022-12-20T14:05:13;11.80;99.90
49777;DHT22;35673;51.482;7.436;2022-12-20T14:07:40;11.70;99.90
49777;DHT22;35673;51.482;7.436;2022-12-20T14:10:19;11.80;99.90
49777;DHT22;35673;51.482;7.436;2022-12-20T14:12:45;11.80;99.90
49777;DHT22;35673;51.482;7.436;2022-12-20T14:17:55;11.90;99.90
49777;DHT22;35673;51.482;7.436;2022-12-20T14:20:34;11.90;99.90
49777;DHT22;35673;51.482;7.436;2022-12-20T14:23:05;11.90;99.90
49777;DHT22;35673;51.482;7.436;2022-12-20T14:25:36;11.90;99.90
49777;DHT22;35673;51.482;7.436;2022-12-20T14:28:03;11.90;99.90
49777;DHT22;35673;51.482;7.436;2022-12-20T14:32:54;11.90;99.90
49777;DHT22;35673;51.482;7.436;2022-12-20T14:35:21;12.00;99.90
49777;DHT22;35673;51.482;7.436;2022-12-20T14:37:54;11.90;99.90
49777;DHT22;35673;51.482;7.436;2022-12-20T14:40:20;11.90;99.90
49777;DHT22;35673;51.482;7.436;2022-12-20T14:42:46;11.80;99.90
49777;DHT22;35673;51.482;7.436;2022-12-20T14:47:37;11.70;99.90
49777;DHT22;35673;51.482;7.436;2022-12-20T14:50:16;11.70;99.90
49777;DHT22;35673;51.482;7.436;2022-12-20T14:52:42;11.60;99.90
49777;DHT22;35673;51.482;7.436;2022-12-20T14:55:15;11.50;99.90
49777;DHT22;35673;51.482;7.436;2022-12-20T14:57:43;11.50;99.90
49777;DHT22;35673;51.482;7.436;2022-12-20T15:02:39;11.50;99.90
49777;DHT22;35673;51.482;7.436;2022-12-20T15:07:54;11.50;99.90
49777;DHT22;35673;51.482;7.436;2022-12-20T15:10:19;11.50;99.90
49777;DHT22;35673;51.482;7.436;2022-12-20T15:12:45;11.50;99.90
49777;DHT22;35673;51.482;7.436;2022-12-20T15:15:12;11.50;99.90
49777;DHT22;35673;51.482;7.436;2022-12-20T15:17:38;11.40;99.90
49777;DHT22;35673;51.482;7.436;2022-12-20T15:20:04;11.40;99.90
49777;DHT22;35673;51.482;7.436;2022-12-20T15:22:30;11.40;99.90
49777;DHT22;35673;51.482;7.436;2022-12-20T15:24:56;11.40;99.90
49777;DHT22;35673;51.482;7.436;2022-12-20T15:27:21;11.30;99.90
49777;DHT22;35673;51.482;7.436;2022-12-20T15:29:48;11.30;99.90
49777;DHT22;35673;51.482;7.436;2022-12-20T15:34:39;11.30;99.90
49777;DHT22;35673;51.482;7.436;2022-12-20T15:37:05;11.30;99.90
49777;DHT22;35673;51.482;7.436;2022-12-20T15:39:30;11.20;99.90
49777;DHT22;35673;51.482;7.436;2022-12-20T15:41:57;11.20;99.90
49777;DHT22;35673;51.482;7.436;2022-12-20T15:44:24;11.20;99.90
49777;DHT22;35673;51.482;7.436;2022-12-20T15:46:51;11.10;99.90
49777;DHT22;35673;51.482;7.436;2022-12-20T15:49:17;11.20;99.90
49777;DHT22;35673;51.482;7.436;2022-12-20T15:51:44;11.20;99.90
49777;DHT22;35673;51.482;7.436;2022-12-20T15:54:23;11.10;99.90
49777;DHT22;35673;51.482;7.436;2022-12-20T15:56:55;11.10;99.90
49777;DHT22;35673;51.482;7.436;2022-12-20T15:59:20;11.10;99.90
49777;DHT22;35673;51.482;7.436;2022-12-20T16:01:46;11.10;99.90
49777;DHT22;35673;51.482;7.436;2022-12-20T16:04:15;11.10;99.90
49777;DHT22;35673;51.482;7.436;2022-12-20T16:06:45;11.10;99.90
49777;DHT22;35673;51.482;7.436;2022-12-20T16:09:11;11.10;99.90
49777;DHT22;35673;51.482;7.436;2022-12-20T16:11:37;11.10;99.90
49777;DHT22;35673;51.482;7.436;2022-12-20T16:14:03;11.10;99.90
49777;DHT22;35673;51.482;7.436;2022-12-20T16:16:30;11.10;99.90
49777;DHT22;35673;51.482;7.436;2022-12-20T16:18:57;11.10;99.90
49777;DHT22;35673;51.482;7.436;2022-12-20T16:21:23;11.20;99.90
49777;DHT22;35673;51.482;7.436;2022-12-20T16:23:50;11.10;99.90
49777;DHT22;35673;51.482;7.436;2022-12-20T16:26:16;11.20;99.90
49777;DHT22;35673;51.482;7.436;2022-12-20T16:28:43;11.20;99.90
49777;DHT22;35673;51.482;7.436;2022-12-20T16:31:29;11.10;99.90
49777;DHT22;35673;51.482;7.436;2022-12-20T16:33:59;11.20;99.90
49777;DHT22;35673;51.482;7.436;2022-12-20T16:36:25;11.20;99.90
49777;DHT22;35673;51.482;7.436;2022-12-20T16:38:51;11.20;99.90
49777;DHT22;35673;51.482;7.436;2022-12-20T16:41:18;11.30;99.90
49777;DHT22;35673;51.482;7.436;2022-12-20T16:43:44;11.30;99.90
49777;DHT22;35673;51.482;7.436;2022-12-20T16:46:11;11.30;99.90
49777;DHT22;35673;51.482;7.436;2022-12-20T16:48:37;11.30;99.90
49777;DHT22;35673;51.482;7.436;2022-12-20T16:51:03;11.30;99.90
49777;DHT22;35673;51.482;7.436;2022-12-20T16:53:28;11.40;99.90
49777;DHT22;35673;51.482;7.436;2022-12-20T16:55:54;11.40;99.90
49777;DHT22;35673;51.482;7.436;2022-12-20T16:58:19;11.40;99.90
49777;DHT22;35673;51.482;7.436;2022-12-20T17:00:45;11.40;99.90
49777;DHT22;35673;51.482;7.436;2022-12-20T17:03:11;11.40;99.90
49777;DHT22;35673;51.482;7.436;2022-12-20T17:05:38;11.40;99.90
49777;DHT22;35673;51.482;7.436;2022-12-20T17:08:03;11.40;99.90
49777;DHT22;35673;51.482;7.436;2022-12-20T17:10:30;11.40;99.90
49777;DHT22;35673;51.482;7.436;2022-12-20T17:12:56;11.50;99.90
49777;DHT22;35673;51.482;7.436;2022-12-20T17:15:23;11.50;99.90
49777;DHT22;35673;51.482;7.436;2022-12-20T17:17:49;11.50;99.90
49777;DHT22;35673;51.482;7.436;2022-12-20T17:20:15;11.50;99.90
49777;DHT22;35673;51.482;7.436;2022-12-20T17:22:41;11.50;99.90
49777;DHT22;35673;51.482;7.436;2022-12-20T17:27:42;11.50;99.90
49777;DHT22;35673;51.482;7.436;2022-12-20T17:30:08;11.50;99.90
49777;DHT22;35673;51.482;7.436;2022-12-20T17:32:34;11.50;99.90
49777;DHT22;35673;51.482;7.436;2022-12-20T17:34:59;11.50;99.90
49777;DHT22;35673;51.482;7.436;2022-12-20T17:37:25;11.50;99.90